Garden City Regional Airport
KGCK : now visible

Airfield :











YOU CAN JOIN US ON...

 
LOGIN :

Register | Disclaimer

   EN    FR    IT 

 









Legend :    VFR   Marginal VFR   IFR   Intensive IFR   Very Intensive IFR
Visi :
Ceiling :
>= 8 km
>= 3000ft
5 to 8 km
1000 to 3000 ft
1500m to 5 km
500 to 1000 ft
800 to 1500m
200 to 500 ft
< 800m
< 200 ft
Symbols :   Thunderstorms  Fog  Heavy snow  Heavy precipitations  Wind > 20 kt






- Airport Elevation : 2891 ft
- IATA code : GCK


KGCK - Garden City Regional

CURRENT METAR :
  • 262354Z 02007KT 3SM -SN BR FEW013 BKN035 OVC042 M09/M10 A2998 RMK AO2 SLP194 P0000 60001 T10891100 11078 21089 51016

EXPIRED METARs :
  • 262339Z 02006KT 1SM -SN BR BKN011 BKN018 OVC043 M09/M09 A2998 RMK AO2 P0000 T10891094
  • 262307Z 03007KT 1/4SM SN FZFG VV014 M08/M09 A2997 RMK AO2 P0000 T10831094
  • 262254Z 02006KT 1/2SM SN FZFG VV015 M08/M09 A2996 RMK AO2 SLP185 P0001 T10831094
  • 262219Z 06007KT 3/4SM -SN BR FEW010 SCT014 OVC021 M08/M09 A2994 RMK AO2 P0000 T10781094
  • 262204Z 05009KT 1SM -SN BR SCT010 BKN023 OVC048 M08/M09 A2993 RMK AO2 P0000 T10781094
  • 262154Z 05008KT 1 3/4SM -SN BR BKN011 BKN023 OVC042 M08/M09 A2993 RMK AO2 SLP174 P0000 T10781094

TAF KGCK
Valid from the 27 at 00:00 until the 28 at 00:00 UTC


262349Z 2700/2724 02007KT 2SM -SN BR SCT011 OVC045
FM270100 03006KT 3SM -SN BR OVC018
FM270400 03008KT P6SM OVC011
FM270900 35005KT P6SM BKN013
FM271100 VRB06KT P6SM SCT070
KZKC FIR / North America



MET'MAP, your aeronautical weather chart ! - Copyright ORBIFLY December 2007 - Disclaimer

ORBIFLY MET'MAP TEAM :

Programming & Development : Alexandra Zaïnal
Concept & original design : Baudouin d'Aumeries
Assistance for programming : Marc-Olivier Méhu
Technical & hardware support : Manuel Goepfert

Contact : metmap@orbifly.com




SOURCES & CREDITS :

   NOAA       Earth
Advisory